sensor_id;sensor_type;location;lat;lon;timestamp;temperature;humidity
5494;DHT22;2769;49.864;8.656;2022-11-14T02:03:12;8.10;99.90
5494;DHT22;2769;49.864;8.656;2022-11-14T02:06:00;8.40;99.90
5494;DHT22;2769;49.864;8.656;2022-11-14T02:08:49;7.00;99.90
5494;DHT22;2769;49.864;8.656;2022-11-14T02:11:39;8.70;99.90
5494;DHT22;2769;49.864;8.656;2022-11-14T02:14:28;8.00;99.90
5494;DHT22;2769;49.864;8.656;2022-11-14T02:17:16;8.10;99.90
5494;DHT22;2769;49.864;8.656;2022-11-14T02:20:18;8.10;99.90
5494;DHT22;2769;49.864;8.656;2022-11-14T02:23:09;7.90;99.90
5494;DHT22;2769;49.864;8.656;2022-11-14T02:25:57;8.50;99.90
5494;DHT22;2769;49.864;8.656;2022-11-14T02:28:44;8.00;99.90
5494;DHT22;2769;49.864;8.656;2022-11-14T02:31:32;8.10;99.90
5494;DHT22;2769;49.864;8.656;2022-11-14T02:34:18;8.10;99.90
5494;DHT22;2769;49.864;8.656;2022-11-14T02:37:07;8.00;99.90
5494;DHT22;2769;49.864;8.656;2022-11-14T02:39:54;8.00;99.90
5494;DHT22;2769;49.864;8.656;2022-11-14T02:42:41;7.70;99.90
5494;DHT22;2769;49.864;8.656;2022-11-14T02:45:28;7.80;99.90
5494;DHT22;2769;49.864;8.656;2022-11-14T02:48:15;8.10;99.90
5494;DHT22;2769;49.864;8.656;2022-11-14T02:51:02;8.00;99.90
5494;DHT22;2769;49.864;8.656;2022-11-14T02:53:51;8.90;99.90
5494;DHT22;2769;49.864;8.656;2022-11-14T02:56:38;8.20;99.90
5494;DHT22;2769;49.864;8.656;2022-11-14T02:59:26;8.20;99.90
5494;DHT22;2769;49.864;8.656;2022-11-14T03:02:12;8.30;99.90
5494;DHT22;2769;49.864;8.656;2022-11-14T03:04:59;7.90;99.90
5494;DHT22;2769;49.864;8.656;2022-11-14T03:07:47;7.80;99.90
5494;DHT22;2769;49.864;8.656;2022-11-14T03:10:35;7.70;99.90
5494;DHT22;2769;49.864;8.656;2022-11-14T03:13:22;7.70;99.90
5494;DHT22;2769;49.864;8.656;2022-11-14T03:16:13;7.80;99.90
5494;DHT22;2769;49.864;8.656;2022-11-14T03:19:01;7.70;99.90
5494;DHT22;2769;49.864;8.656;2022-11-14T03:21:48;7.80;99.90
5494;DHT22;2769;49.864;8.656;2022-11-14T03:24:35;7.90;99.90
5494;DHT22;2769;49.864;8.656;2022-11-14T03:27:23;8.80;99.90
5494;DHT22;2769;49.864;8.656;2022-11-14T03:30:11;8.10;99.90
5494;DHT22;2769;49.864;8.656;2022-11-14T03:32:59;8.30;99.90
5494;DHT22;2769;49.864;8.656;2022-11-14T03:35:48;8.30;99.90
5494;DHT22;2769;49.864;8.656;2022-11-14T03:38:38;8.90;99.90
5494;DHT22;2769;49.864;8.656;2022-11-14T03:41:42;8.50;99.90
5494;DHT22;2769;49.864;8.656;2022-11-14T03:44:33;8.50;99.90
5494;DHT22;2769;49.864;8.656;2022-11-14T03:47:32;8.70;99.90
5494;DHT22;2769;49.864;8.656;2022-11-14T03:50:19;8.80;99.90
5494;DHT22;2769;49.864;8.656;2022-11-14T03:53:30;8.90;99.90
5494;DHT22;2769;49.864;8.656;2022-11-14T03:56:18;8.90;99.90
5494;DHT22;2769;49.864;8.656;2022-11-14T03:59:06;9.00;99.90
5494;DHT22;2769;49.864;8.656;2022-11-14T04:02:08;9.10;99.90
5494;DHT22;2769;49.864;8.656;2022-11-14T04:04:55;9.10;99.90
5494;DHT22;2769;49.864;8.656;2022-11-14T04:07:42;9.20;99.90
5494;DHT22;2769;49.864;8.656;2022-11-14T04:10:29;9.60;99.90
5494;DHT22;2769;49.864;8.656;2022-11-14T04:13:16;9.70;99.90
5494;DHT22;2769;49.864;8.656;2022-11-14T04:16:03;9.30;99.90
5494;DHT22;2769;49.864;8.656;2022-11-14T04:18:52;9.20;99.90
5494;DHT22;2769;49.864;8.656;2022-11-14T04:21:39;9.30;99.90
5494;DHT22;2769;49.864;8.656;2022-11-14T04:24:25;9.80;99.90
5494;DHT22;2769;49.864;8.656;2022-11-14T04:27:12;9.40;99.90
5494;DHT22;2769;49.864;8.656;2022-11-14T04:29:59;9.50;99.90
5494;DHT22;2769;49.864;8.656;2022-11-14T04:32:46;9.80;99.90
5494;DHT22;2769;49.864;8.656;2022-11-14T04:35:35;9.60;99.90
5494;DHT22;2769;49.864;8.656;2022-11-14T04:38:22;9.70;99.90
5494;DHT22;2769;49.864;8.656;2022-11-14T04:41:09;9.60;99.90
5494;DHT22;2769;49.864;8.656;2022-11-14T04:43:56;9.60;99.90
5494;DHT22;2769;49.864;8.656;2022-11-14T04:46:43;9.60;99.90
5494;DHT22;2769;49.864;8.656;2022-11-14T04:49:29;9.70;99.90
5494;DHT22;2769;49.864;8.656;2022-11-14T04:52:18;10.40;99.90
5494;DHT22;2769;49.864;8.656;2022-11-14T04:55:05;10.10;99.90
5494;DHT22;2769;49.864;8.656;2022-11-14T04:57:53;9.70;99.90
5494;DHT22;2769;49.864;8.656;2022-11-14T05:00:40;9.80;99.90
5494;DHT22;2769;49.864;8.656;2022-11-14T05:03:28;9.90;99.90
5494;DHT22;2769;49.864;8.656;2022-11-14T05:06:15;10.00;99.90
5494;DHT22;2769;49.864;8.656;2022-11-14T05:09:03;9.80;99.90
5494;DHT22;2769;49.864;8.656;2022-11-14T05:11:50;9.80;99.90
5494;DHT22;2769;49.864;8.656;2022-11-14T05:14:37;9.80;99.90
5494;DHT22;2769;49.864;8.656;2022-11-14T05:17:24;10.60;99.90
5494;DHT22;2769;49.864;8.656;2022-11-14T05:20:12;9.80;99.90
5494;DHT22;2769;49.864;8.656;2022-11-14T05:22:59;9.90;99.90
5494;DHT22;2769;49.864;8.656;2022-11-14T05:25:58;9.60;99.90
5494;DHT22;2769;49.864;8.656;2022-11-14T05:28:45;9.80;99.90
5494;DHT22;2769;49.864;8.656;2022-11-14T05:31:31;9.50;99.90
5494;DHT22;2769;49.864;8.656;2022-11-14T05:34:18;10.50;99.90
5494;DHT22;2769;49.864;8.656;2022-11-14T05:37:05;9.90;99.90
5494;DHT22;2769;49.864;8.656;2022-11-14T05:39:52;9.80;99.90
5494;DHT22;2769;49.864;8.656;2022-11-14T05:42:41;9.80;99.90
5494;DHT22;2769;49.864;8.656;2022-11-14T05:45:29;10.00;99.90
5494;DHT22;2769;49.864;8.656;2022-11-14T05:48:15;10.00;99.90
5494;DHT22;2769;49.864;8.656;2022-11-14T05:51:04;10.00;99.90
5494;DHT22;2769;49.864;8.656;2022-11-14T05:53:51;10.10;99.90
5494;DHT22;2769;49.864;8.656;2022-11-14T05:56:39;10.00;99.90
5494;DHT22;2769;49.864;8.656;2022-11-14T05:59:28;10.30;99.90
5494;DHT22;2769;49.864;8.656;2022-11-14T06:02:15;10.10;99.90
5494;DHT22;2769;49.864;8.656;2022-11-14T06:05:02;10.00;99.90
5494;DHT22;2769;49.864;8.656;2022-11-14T06:07:54;10.10;99.90
5494;DHT22;2769;49.864;8.656;2022-11-14T06:10:41;10.20;99.90
5494;DHT22;2769;49.864;8.656;2022-11-14T06:13:54;10.90;99.90
5494;DHT22;2769;49.864;8.656;2022-11-14T06:16:42;10.20;99.90
5494;DHT22;2769;49.864;8.656;2022-11-14T06:19:31;10.30;99.90
5494;DHT22;2769;49.864;8.656;2022-11-14T06:22:23;10.80;99.90
5494;DHT22;2769;49.864;8.656;2022-11-14T06:25:10;10.20;99.90
5494;DHT22;2769;49.864;8.656;2022-11-14T06:27:58;10.20;99.90
5494;DHT22;2769;49.864;8.656;2022-11-14T06:30:44;10.60;99.90
5494;DHT22;2769;49.864;8.656;2022-11-14T06:33:34;10.20;99.90
5494;DHT22;2769;49.864;8.656;2022-11-14T06:36:22;10.40;99.90
5494;DHT22;2769;49.864;8.656;2022-11-14T06:39:08;10.90;99.90
5494;DHT22;2769;49.864;8.656;2022-11-14T06:41:55;10.10;99.90
5494;DHT22;2769;49.864;8.656;2022-11-14T06:44:42;10.20;99.90
5494;DHT22;2769;49.864;8.656;2022-11-14T06:47:28;10.40;99.90
5494;DHT22;2769;49.864;8.656;2022-11-14T06:50:17;10.40;99.90
5494;DHT22;2769;49.864;8.656;2022-11-14T06:53:03;10.40;99.90
5494;DHT22;2769;49.864;8.656;2022-11-14T06:55:54;10.40;99.90
5494;DHT22;2769;49.864;8.656;2022-11-14T06:58:44;10.40;99.90
5494;DHT22;2769;49.864;8.656;2022-11-14T07:01:31;10.40;99.90
5494;DHT22;2769;49.864;8.656;2022-11-14T07:04:18;10.30;99.90
5494;DHT22;2769;49.864;8.656;2022-11-14T07:07:07;10.30;99.90
5494;DHT22;2769;49.864;8.656;2022-11-14T07:09:54;10.80;99.90
5494;DHT22;2769;49.864;8.656;2022-11-14T07:12:43;10.50;99.90
5494;DHT22;2769;49.864;8.656;2022-11-14T07:15:30;10.30;99.90
5494;DHT22;2769;49.864;8.656;2022-11-14T07:18:17;10.70;99.90
5494;DHT22;2769;49.864;8.656;2022-11-14T07:21:05;10.40;99.90
5494;DHT22;2769;49.864;8.656;2022-11-14T07:23:53;10.60;99.90
5494;DHT22;2769;49.864;8.656;2022-11-14T07:26:40;10.30;99.90
5494;DHT22;2769;49.864;8.656;2022-11-14T07:29:27;10.40;99.90
5494;DHT22;2769;49.864;8.656;2022-11-14T07:32:14;10.60;99.90
5494;DHT22;2769;49.864;8.656;2022-11-14T07:35:00;10.50;99.90
5494;DHT22;2769;49.864;8.656;2022-11-14T07:37:47;10.60;99.90
5494;DHT22;2769;49.864;8.656;2022-11-14T07:40:35;11.00;99.90
5494;DHT22;2769;49.864;8.656;2022-11-14T07:43:22;10.70;99.90
5494;DHT22;2769;49.864;8.656;2022-11-14T07:46:11;10.70;99.90
5494;DHT22;2769;49.864;8.656;2022-11-14T07:48:59;10.80;99.90
5494;DHT22;2769;49.864;8.656;2022-11-14T07:51:45;11.40;99.90
5494;DHT22;2769;49.864;8.656;2022-11-14T07:54:32;10.70;99.90
5494;DHT22;2769;49.864;8.656;2022-11-14T07:57:20;10.40;99.90
5494;DHT22;2769;49.864;8.656;2022-11-14T08:00:08;10.50;99.90
5494;DHT22;2769;49.864;8.656;2022-11-14T08:02:55;10.30;99.90
5494;DHT22;2769;49.864;8.656;2022-11-14T08:05:42;10.30;99.90
5494;DHT22;2769;49.864;8.656;2022-11-14T08:08:29;10.10;99.90
5494;DHT22;2769;49.864;8.656;2022-11-14T08:11:16;10.00;99.90
5494;DHT22;2769;49.864;8.656;2022-11-14T08:14:25;10.00;99.90
5494;DHT22;2769;49.864;8.656;2022-11-14T08:17:12;10.50;99.90
5494;DHT22;2769;49.864;8.656;2022-11-14T08:19:59;10.80;99.90
5494;DHT22;2769;49.864;8.656;2022-11-14T08:22:45;10.50;99.90
5494;DHT22;2769;49.864;8.656;2022-11-14T08:25:32;10.80;99.90
5494;DHT22;2769;49.864;8.656;2022-11-14T08:28:19;10.20;99.90
5494;DHT22;2769;49.864;8.656;2022-11-14T08:31:07;10.50;99.90
5494;DHT22;2769;49.864;8.656;2022-11-14T08:33:54;10.70;99.90
5494;DHT22;2769;49.864;8.656;2022-11-14T08:36:41;10.80;99.90
5494;DHT22;2769;49.864;8.656;2022-11-14T08:39:27;11.20;99.90
5494;DHT22;2769;49.864;8.656;2022-11-14T08:42:14;11.50;99.90
5494;DHT22;2769;49.864;8.656;2022-11-14T08:45:01;11.80;99.90
5494;DHT22;2769;49.864;8.656;2022-11-14T08:47:53;11.70;99.90
5494;DHT22;2769;49.864;8.656;2022-11-14T08:50:40;12.10;99.90
5494;DHT22;2769;49.864;8.656;2022-11-14T08:53:27;12.20;99.90
5494;DHT22;2769;49.864;8.656;2022-11-14T08:56:13;12.40;99.90
5494;DHT22;2769;49.864;8.656;2022-11-14T08:59:02;11.70;99.90
5494;DHT22;2769;49.864;8.656;2022-11-14T09:01:49;12.50;99.90
5494;DHT22;2769;49.864;8.656;2022-11-14T09:04:37;12.20;99.90
5494;DHT22;2769;49.864;8.656;2022-11-14T09:07:24;12.80;99.90
5494;DHT22;2769;49.864;8.656;2022-11-14T09:10:11;12.20;99.90
5494;DHT22;2769;49.864;8.656;2022-11-14T09:13:00;12.50;99.90
5494;DHT22;2769;49.864;8.656;2022-11-14T09:15:47;13.40;99.90
5494;DHT22;2769;49.864;8.656;2022-11-14T09:18:34;13.10;99.90
5494;DHT22;2769;49.864;8.656;2022-11-14T09:21:23;13.50;99.90
5494;DHT22;2769;49.864;8.656;2022-11-14T09:24:10;13.50;99.90
5494;DHT22;2769;49.864;8.656;2022-11-14T09:26:57;12.80;99.90
5494;DHT22;2769;49.864;8.656;2022-11-14T09:29:46;13.00;99.90
5494;DHT22;2769;49.864;8.656;2022-11-14T09:32:32;13.00;99.90
5494;DHT22;2769;49.864;8.656;2022-11-14T09:35:22;13.10;99.90
5494;DHT22;2769;49.864;8.656;2022-11-14T09:38:11;13.40;99.90
5494;DHT22;2769;49.864;8.656;2022-11-14T09:41:07;14.80;99.90
5494;DHT22;2769;49.864;8.656;2022-11-14T09:44:13;16.40;99.90
5494;DHT22;2769;49.864;8.656;2022-11-14T09:47:09;17.20;99.90
5494;DHT22;2769;49.864;8.656;2022-11-14T09:50:13;18.20;99.90
5494;DHT22;2769;49.864;8.656;2022-11-14T09:53:04;18.50;99.90
5494;DHT22;2769;49.864;8.656;2022-11-14T09:55:53;17.40;99.90
5494;DHT22;2769;49.864;8.656;2022-11-14T09:58:40;16.40;99.90
5494;DHT22;2769;49.864;8.656;2022-11-14T10:01:42;15.80;99.90
5494;DHT22;2769;49.864;8.656;2022-11-14T10:04:42;15.20;99.90
5494;DHT22;2769;49.864;8.656;2022-11-14T10:07:39;14.90;99.90
5494;DHT22;2769;49.864;8.656;2022-11-14T10:10:40;14.60;99.90
5494;DHT22;2769;49.864;8.656;2022-11-14T10:16:51;14.20;99.90
5494;DHT22;2769;49.864;8.656;2022-11-14T10:19:47;14.20;99.90
5494;DHT22;2769;49.864;8.656;2022-11-14T10:22:48;14.20;99.90
5494;DHT22;2769;49.864;8.656;2022-11-14T10:25:53;14.20;99.90
5494;DHT22;2769;49.864;8.656;2022-11-14T10:32:07;15.00;99.90
5494;DHT22;2769;49.864;8.656;2022-11-14T10:35:01;15.40;99.90
5494;DHT22;2769;49.864;8.656;2022-11-14T10:37:57;15.60;99.90
5494;DHT22;2769;49.864;8.656;2022-11-14T10:40:47;15.60;99.90
5494;DHT22;2769;49.864;8.656;2022-11-14T10:43:38;15.30;99.90
5494;DHT22;2769;49.864;8.656;2022-11-14T10:46:32;15.10;99.90
5494;DHT22;2769;49.864;8.656;2022-11-14T10:49:21;14.80;99.90
5494;DHT22;2769;49.864;8.656;2022-11-14T10:52:12;14.70;99.90
5494;DHT22;2769;49.864;8.656;2022-11-14T10:55:05;14.60;99.90
5494;DHT22;2769;49.864;8.656;2022-11-14T10:57:52;14.40;99.90
5494;DHT22;2769;49.864;8.656;2022-11-14T11:00:39;14.40;99.90
5494;DHT22;2769;49.864;8.656;2022-11-14T11:03:41;14.40;99.90
5494;DHT22;2769;49.864;8.656;2022-11-14T11:06:29;14.60;99.90
5494;DHT22;2769;49.864;8.656;2022-11-14T11:09:18;14.40;99.90
5494;DHT22;2769;49.864;8.656;2022-11-14T11:12:40;14.40;99.90
5494;DHT22;2769;49.864;8.656;2022-11-14T11:15:30;14.40;99.90
5494;DHT22;2769;49.864;8.656;2022-11-14T11:18:24;14.40;99.90
5494;DHT22;2769;49.864;8.656;2022-11-14T11:21:15;14.50;99.90
5494;DHT22;2769;49.864;8.656;2022-11-14T11:24:02;14.50;99.90
5494;DHT22;2769;49.864;8.656;2022-11-14T11:27:13;14.60;99.90
5494;DHT22;2769;49.864;8.656;2022-11-14T11:30:06;14.60;99.90
5494;DHT22;2769;49.864;8.656;2022-11-14T11:32:53;14.60;99.90
5494;DHT22;2769;49.864;8.656;2022-11-14T11:35:40;14.60;99.90
5494;DHT22;2769;49.864;8.656;2022-11-14T11:38:31;14.50;99.90
5494;DHT22;2769;49.864;8.656;2022-11-14T11:41:24;14.60;99.90
5494;DHT22;2769;49.864;8.656;2022-11-14T11:44:36;14.70;99.90
5494;DHT22;2769;49.864;8.656;2022-11-14T11:47:24;14.70;99.90
5494;DHT22;2769;49.864;8.656;2022-11-14T11:50:15;14.80;99.90
5494;DHT22;2769;49.864;8.656;2022-11-14T11:53:10;15.40;99.90
5494;DHT22;2769;49.864;8.656;2022-11-14T11:56:04;15.70;99.90
5494;DHT22;2769;49.864;8.656;2022-11-14T11:58:55;16.20;99.90
5494;DHT22;2769;49.864;8.656;2022-11-14T12:01:44;16.30;99.90
5494;DHT22;2769;49.864;8.656;2022-11-14T12:04:31;16.20;99.90
5494;DHT22;2769;49.864;8.656;2022-11-14T12:07:19;16.20;99.90
5494;DHT22;2769;49.864;8.656;2022-11-14T12:10:13;16.00;99.90
5494;DHT22;2769;49.864;8.656;2022-11-14T12:13:32;15.90;99.90
5494;DHT22;2769;49.864;8.656;2022-11-14T12:16:34;15.20;99.90
5494;DHT22;2769;49.864;8.656;2022-11-14T12:23:07;15.10;99.90
5494;DHT22;2769;49.864;8.656;2022-11-14T12:26:08;15.10;99.90
5494;DHT22;2769;49.864;8.656;2022-11-14T12:29:10;15.10;99.90
5494;DHT22;2769;49.864;8.656;2022-11-14T12:32:12;15.00;99.90
5494;DHT22;2769;49.864;8.656;2022-11-14T12:35:02;14.90;99.90
5494;DHT22;2769;49.864;8.656;2022-11-14T12:37:53;14.80;99.90
5494;DHT22;2769;49.864;8.656;2022-11-14T12:40:48;14.80;99.90
5494;DHT22;2769;49.864;8.656;2022-11-14T12:43:36;14.80;99.90
5494;DHT22;2769;49.864;8.656;2022-11-14T12:46:25;14.80;99.90
5494;DHT22;2769;49.864;8.656;2022-11-14T12:49:36;14.70;99.90
5494;DHT22;2769;49.864;8.656;2022-11-14T12:52:46;14.60;99.90
5494;DHT22;2769;49.864;8.656;2022-11-14T12:55:53;14.60;99.90
5494;DHT22;2769;49.864;8.656;2022-11-14T12:58:48;14.40;99.90
5494;DHT22;2769;49.864;8.656;2022-11-14T13:01:49;14.40;99.90
5494;DHT22;2769;49.864;8.656;2022-11-14T13:04:47;14.30;99.90
5494;DHT22;2769;49.864;8.656;2022-11-14T13:07:47;14.30;99.90
5494;DHT22;2769;49.864;8.656;2022-11-14T13:10:37;14.30;99.90
5494;DHT22;2769;49.864;8.656;2022-11-14T13:13:24;14.40;99.90
5494;DHT22;2769;49.864;8.656;2022-11-14T13:16:30;14.50;99.90
5494;DHT22;2769;49.864;8.656;2022-11-14T13:19:44;14.50;99.90
5494;DHT22;2769;49.864;8.656;2022-11-14T13:22:48;14.50;99.90
5494;DHT22;2769;49.864;8.656;2022-11-14T13:25:35;14.50;99.90
5494;DHT22;2769;49.864;8.656;2022-11-14T13:28:46;14.50;99.90
5494;DHT22;2769;49.864;8.656;2022-11-14T13:31:47;14.50;99.90
5494;DHT22;2769;49.864;8.656;2022-11-14T13:34:45;14.60;99.90
5494;DHT22;2769;49.864;8.656;2022-11-14T13:37:55;14.50;99.90
5494;DHT22;2769;49.864;8.656;2022-11-14T13:40:52;14.50;99.90
5494;DHT22;2769;49.864;8.656;2022-11-14T13:44:00;14.70;99.90
5494;DHT22;2769;49.864;8.656;2022-11-14T13:47:09;14.90;99.90
5494;DHT22;2769;49.864;8.656;2022-11-14T13:50:03;14.90;99.90
5494;DHT22;2769;49.864;8.656;2022-11-14T13:52:51;14.90;99.90
5494;DHT22;2769;49.864;8.656;2022-11-14T13:55:48;14.80;99.90
5494;DHT22;2769;49.864;8.656;2022-11-14T13:59:11;14.70;99.90
5494;DHT22;2769;49.864;8.656;2022-11-14T14:02:45;14.70;99.90
5494;DHT22;2769;49.864;8.656;2022-11-14T14:05:46;14.50;99.90
5494;DHT22;2769;49.864;8.656;2022-11-14T14:08:56;14.30;99.90
5494;DHT22;2769;49.864;8.656;2022-11-14T14:11:57;14.60;99.90
5494;DHT22;2769;49.864;8.656;2022-11-14T14:14:56;14.80;99.90
5494;DHT22;2769;49.864;8.656;2022-11-14T14:17:57;14.80;99.90
5494;DHT22;2769;49.864;8.656;2022-11-14T14:20:52;14.80;99.90
5494;DHT22;2769;49.864;8.656;2022-11-14T14:23:46;14.90;99.90
5494;DHT22;2769;49.864;8.656;2022-11-14T14:26:41;14.80;99.90
5494;DHT22;2769;49.864;8.656;2022-11-14T14:29:39;14.80;99.90
5494;DHT22;2769;49.864;8.656;2022-11-14T14:32:30;14.80;99.90
5494;DHT22;2769;49.864;8.656;2022-11-14T14:35:22;14.80;99.90
5494;DHT22;2769;49.864;8.656;2022-11-14T14:38:11;14.70;99.90
5494;DHT22;2769;49.864;8.656;2022-11-14T14:40:59;14.80;99.90
5494;DHT22;2769;49.864;8.656;2022-11-14T14:43:51;14.80;99.90
5494;DHT22;2769;49.864;8.656;2022-11-14T14:46:39;14.50;99.90
5494;DHT22;2769;49.864;8.656;2022-11-14T14:49:28;14.30;99.90
5494;DHT22;2769;49.864;8.656;2022-11-14T14:52:19;14.30;99.90
5494;DHT22;2769;49.864;8.656;2022-11-14T14:55:21;14.30;99.90
5494;DHT22;2769;49.864;8.656;2022-11-14T14:58:15;14.20;99.90
5494;DHT22;2769;49.864;8.656;2022-11-14T15:01:11;14.20;99.90
5494;DHT22;2769;49.864;8.656;2022-11-14T15:04:02;14.20;99.90
5494;DHT22;2769;49.864;8.656;2022-11-14T15:06:51;14.20;99.90
5494;DHT22;2769;49.864;8.656;2022-11-14T15:09:50;14.50;99.90
5494;DHT22;2769;49.864;8.656;2022-11-14T15:12:39;13.90;99.90
5494;DHT22;2769;49.864;8.656;2022-11-14T15:15:26;14.00;99.90
5494;DHT22;2769;49.864;8.656;2022-11-14T15:18:23;14.00;99.90
5494;DHT22;2769;49.864;8.656;2022-11-14T15:21:14;13.80;99.90
5494;DHT22;2769;49.864;8.656;2022-11-14T15:24:12;13.80;99.90
5494;DHT22;2769;49.864;8.656;2022-11-14T15:27:03;13.70;99.90
5494;DHT22;2769;49.864;8.656;2022-11-14T15:29:52;13.70;99.90
5494;DHT22;2769;49.864;8.656;2022-11-14T15:32:47;13.60;99.90
5494;DHT22;2769;49.864;8.656;2022-11-14T15:35:35;13.60;99.90
5494;DHT22;2769;49.864;8.656;2022-11-14T15:38:22;13.60;99.90
5494;DHT22;2769;49.864;8.656;2022-11-14T15:41:30;13.50;99.90
5494;DHT22;2769;49.864;8.656;2022-11-14T15:44:30;13.40;99.90
5494;DHT22;2769;49.864;8.656;2022-11-14T15:47:21;13.30;99.90
5494;DHT22;2769;49.864;8.656;2022-11-14T15:50:24;13.60;99.90
5494;DHT22;2769;49.864;8.656;2022-11-14T15:53:20;13.20;99.90
5494;DHT22;2769;49.864;8.656;2022-11-14T15:56:10;13.20;99.90
5494;DHT22;2769;49.864;8.656;2022-11-14T15:58:57;13.10;99.90
5494;DHT22;2769;49.864;8.656;2022-11-14T16:01:46;13.10;99.90
5494;DHT22;2769;49.864;8.656;2022-11-14T16:04:36;13.10;99.90
5494;DHT22;2769;49.864;8.656;2022-11-14T16:07:30;13.20;99.90
5494;DHT22;2769;49.864;8.656;2022-11-14T16:10:19;13.10;99.90
5494;DHT22;2769;49.864;8.656;2022-11-14T16:13:06;13.10;99.90
5494;DHT22;2769;49.864;8.656;2022-11-14T16:15:53;13.20;99.90
5494;DHT22;2769;49.864;8.656;2022-11-14T16:18:40;13.20;99.90
5494;DHT22;2769;49.864;8.656;2022-11-14T16:21:28;13.10;99.90
5494;DHT22;2769;49.864;8.656;2022-11-14T16:24:16;13.20;99.90
5494;DHT22;2769;49.864;8.656;2022-11-14T16:27:03;13.40;99.90
5494;DHT22;2769;49.864;8.656;2022-11-14T16:29:50;13.70;99.90
5494;DHT22;2769;49.864;8.656;2022-11-14T16:32:37;13.40;99.90
5494;DHT22;2769;49.864;8.656;2022-11-14T16:35:25;13.40;99.90
5494;DHT22;2769;49.864;8.656;2022-11-14T16:38:13;13.40;99.90
5494;DHT22;2769;49.864;8.656;2022-11-14T16:41:00;13.50;99.90
5494;DHT22;2769;49.864;8.656;2022-11-14T16:43:48;13.80;99.90
5494;DHT22;2769;49.864;8.656;2022-11-14T16:46:34;13.90;99.90
5494;DHT22;2769;49.864;8.656;2022-11-14T16:49:23;13.90;99.90
5494;DHT22;2769;49.864;8.656;2022-11-14T16:52:10;13.90;99.90
5494;DHT22;2769;49.864;8.656;2022-11-14T16:54:58;13.90;99.90
5494;DHT22;2769;49.864;8.656;2022-11-14T16:57:45;13.90;99.90
5494;DHT22;2769;49.864;8.656;2022-11-14T17:00:33;14.10;99.90
5494;DHT22;2769;49.864;8.656;2022-11-14T17:03:20;14.10;99.90
5494;DHT22;2769;49.864;8.656;2022-11-14T17:06:07;14.30;99.90
5494;DHT22;2769;49.864;8.656;2022-11-14T17:08:56;14.50;99.90
5494;DHT22;2769;49.864;8.656;2022-11-14T17:11:44;14.90;99.90
5494;DHT22;2769;49.864;8.656;2022-11-14T17:14:31;14.50;99.90
5494;DHT22;2769;49.864;8.656;2022-11-14T17:17:18;14.50;99.90
5494;DHT22;2769;49.864;8.656;2022-11-14T17:20:05;14.60;99.90
5494;DHT22;2769;49.864;8.656;2022-11-14T17:22:52;14.70;99.90
5494;DHT22;2769;49.864;8.656;2022-11-14T17:25:39;14.70;99.90
5494;DHT22;2769;49.864;8.656;2022-11-14T17:28:27;14.70;99.90
5494;DHT22;2769;49.864;8.656;2022-11-14T17:31:15;14.80;99.90
5494;DHT22;2769;49.864;8.656;2022-11-14T17:34:01;14.70;99.90
5494;DHT22;2769;49.864;8.656;2022-11-14T17:36:48;14.70;99.90
5494;DHT22;2769;49.864;8.656;2022-11-14T17:39:35;14.90;99.90
5494;DHT22;2769;49.864;8.656;2022-11-14T17:42:22;15.00;99.90
5494;DHT22;2769;49.864;8.656;2022-11-14T17:45:10;15.20;99.90
5494;DHT22;2769;49.864;8.656;2022-11-14T17:47:56;15.20;99.90
5494;DHT22;2769;49.864;8.656;2022-11-14T17:50:43;15.10;99.90
5494;DHT22;2769;49.864;8.656;2022-11-14T17:53:31;15.20;99.90
5494;DHT22;2769;49.864;8.656;2022-11-14T17:56:20;15.10;99.90
5494;DHT22;2769;49.864;8.656;2022-11-14T17:59:07;15.10;99.90
5494;DHT22;2769;49.864;8.656;2022-11-14T18:01:56;15.20;99.90
5494;DHT22;2769;49.864;8.656;2022-11-14T18:04:44;15.20;99.90
5494;DHT22;2769;49.864;8.656;2022-11-14T18:07:32;15.00;99.90
5494;DHT22;2769;49.864;8.656;2022-11-14T18:10:19;14.90;99.90
5494;DHT22;2769;49.864;8.656;2022-11-14T18:13:06;15.00;99.90
5494;DHT22;2769;49.864;8.656;2022-11-14T18:15:53;15.10;99.90
5494;DHT22;2769;49.864;8.656;2022-11-14T18:18:42;15.00;99.90
5494;DHT22;2769;49.864;8.656;2022-11-14T18:21:29;15.10;99.90
5494;DHT22;2769;49.864;8.656;2022-11-14T18:24:15;15.10;99.90
5494;DHT22;2769;49.864;8.656;2022-11-14T18:27:02;15.10;99.90
5494;DHT22;2769;49.864;8.656;2022-11-14T18:29:49;15.10;99.90
5494;DHT22;2769;49.864;8.656;2022-11-14T18:32:36;15.10;99.90
5494;DHT22;2769;49.864;8.656;2022-11-14T18:35:24;15.00;99.90
5494;DHT22;2769;49.864;8.656;2022-11-14T18:38:11;15.20;99.90
5494;DHT22;2769;49.864;8.656;2022-11-14T18:40:59;15.20;99.90
5494;DHT22;2769;49.864;8.656;2022-11-14T18:43:48;15.30;99.90
5494;DHT22;2769;49.864;8.656;2022-11-14T18:46:34;15.20;99.90
5494;DHT22;2769;49.864;8.656;2022-11-14T18:49:22;15.20;99.90
5494;DHT22;2769;49.864;8.656;2022-11-14T18:52:11;15.00;99.90
5494;DHT22;2769;49.864;8.656;2022-11-14T18:55:03;15.10;99.90
5494;DHT22;2769;49.864;8.656;2022-11-14T18:57:52;15.10;99.90
5494;DHT22;2769;49.864;8.656;2022-11-14T19:00:39;14.80;99.90
5494;DHT22;2769;49.864;8.656;2022-11-14T19:03:27;15.00;99.90
5494;DHT22;2769;49.864;8.656;2022-11-14T19:06:16;15.00;99.90
5494;DHT22;2769;49.864;8.656;2022-11-14T19:09:06;15.20;99.90
5494;DHT22;2769;49.864;8.656;2022-11-14T19:11:55;15.20;99.90
5494;DHT22;2769;49.864;8.656;2022-11-14T19:15:03;15.10;99.90
5494;DHT22;2769;49.864;8.656;2022-11-14T19:17:51;15.10;99.90
5494;DHT22;2769;49.864;8.656;2022-11-14T19:20:38;14.80;99.90
5494;DHT22;2769;49.864;8.656;2022-11-14T19:23:25;15.00;99.90
5494;DHT22;2769;49.864;8.656;2022-11-14T19:26:14;15.20;99.90
5494;DHT22;2769;49.864;8.656;2022-11-14T19:29:02;15.20;99.90
5494;DHT22;2769;49.864;8.656;2022-11-14T19:31:49;15.20;99.90
5494;DHT22;2769;49.864;8.656;2022-11-14T19:34:37;15.20;99.90
5494;DHT22;2769;49.864;8.656;2022-11-14T19:37:24;15.20;99.90
5494;DHT22;2769;49.864;8.656;2022-11-14T19:40:13;15.00;99.90
5494;DHT22;2769;49.864;8.656;2022-11-14T19:43:05;14.90;99.90
5494;DHT22;2769;49.864;8.656;2022-11-14T19:46:00;15.10;99.90
5494;DHT22;2769;49.864;8.656;2022-11-14T19:48:48;15.10;99.90
5494;DHT22;2769;49.864;8.656;2022-11-14T19:51:39;14.80;99.90
5494;DHT22;2769;49.864;8.656;2022-11-14T19:54:33;14.80;99.90
5494;DHT22;2769;49.864;8.656;2022-11-14T19:57:22;14.80;99.90
5494;DHT22;2769;49.864;8.656;2022-11-14T20:00:14;14.90;99.90
5494;DHT22;2769;49.864;8.656;2022-11-14T20:03:02;15.00;99.90
5494;DHT22;2769;49.864;8.656;2022-11-14T20:05:48;14.90;99.90
5494;DHT22;2769;49.864;8.656;2022-11-14T20:08:35;14.80;99.90
5494;DHT22;2769;49.864;8.656;2022-11-14T20:11:24;14.80;99.90
5494;DHT22;2769;49.864;8.656;2022-11-14T20:14:12;14.90;99.90
5494;DHT22;2769;49.864;8.656;2022-11-14T20:17:00;15.00;99.90
5494;DHT22;2769;49.864;8.656;2022-11-14T20:19:46;14.90;99.90
5494;DHT22;2769;49.864;8.656;2022-11-14T20:22:35;14.80;99.90
5494;DHT22;2769;49.864;8.656;2022-11-14T20:25:21;15.20;99.90
5494;DHT22;2769;49.864;8.656;2022-11-14T20:28:09;14.90;99.90
5494;DHT22;2769;49.864;8.656;2022-11-14T20:31:00;15.00;99.90
5494;DHT22;2769;49.864;8.656;2022-11-14T20:33:52;14.80;99.90
5494;DHT22;2769;49.864;8.656;2022-11-14T20:36:40;14.60;99.90
5494;DHT22;2769;49.864;8.656;2022-11-14T20:39:47;14.70;99.90
5494;DHT22;2769;49.864;8.656;2022-11-14T20:42:34;14.70;99.90
5494;DHT22;2769;49.864;8.656;2022-11-14T20:45:21;14.70;99.90
5494;DHT22;2769;49.864;8.656;2022-11-14T20:48:07;14.80;99.90
5494;DHT22;2769;49.864;8.656;2022-11-14T20:51:01;15.00;99.90